Time;durP1;ratioP1;P1;durP2;ratioP2;P2;SDS_P1;SDS_P2;PMS_P1;PMS_P2;Temp;Humidity;BMP_temperature;BMP_pressure;BME280_temperature;BME280_humidity;BME280_pressure;Samples;Min_cycle;Max_cycle;Signal;HPM_P1;HPM_P2
2022/03/02 00:00:51;;;;;;;18.73;13.87;;;;;;;;;;5054337;28;20265;-77
2022/03/02 00:03:21;;;;;;;20.70;14.33;;;;;;;;;;5053754;28;20210;-77
2022/03/02 00:05:49;;;;;;;18.97;13.33;;;;;;;;;;5053867;28;20658;-77
2022/03/02 00:08:18;;;;;;;18.77;14.03;;;;;;;;;;5054258;28;20219;-77
2022/03/02 00:10:46;;;;;;;18.53;13.20;;;;;;;;;;5053625;28;20645;-77
2022/03/02 00:13:15;;;;;;;20.03;14.27;;;;;;;;;;5054208;28;20728;-76
2022/03/02 00:15:43;;;;;;;17.93;13.50;;;;;;;;;;5053697;28;20601;-77
2022/03/02 00:18:11;;;;;;;20.43;14.60;;;;;;;;;;5053859;28;20226;-76
2022/03/02 00:20:41;;;;;;;16.47;12.87;;;;;;;;;;5054502;28;20206;-76
2022/03/02 00:23:10;;;;;;;18.83;13.83;;;;;;;;;;5054128;28;20212;-76
2022/03/02 00:25:38;;;;;;;18.20;14.07;;;;;;;;;;5053754;28;20677;-76
2022/03/02 00:28:07;;;;;;;19.70;13.80;;;;;;;;;;5048384;28;20208;-77
2022/03/02 00:30:35;;;;;;;18.63;14.30;;;;;;;;;;5046976;28;20698;-76
2022/03/02 00:33:04;;;;;;;18.53;13.83;;;;;;;;;;5053555;28;20207;-77
2022/03/02 00:35:32;;;;;;;19.87;14.80;;;;;;;;;;5049047;28;20573;-77
2022/03/02 00:38:02;;;;;;;18.37;14.17;;;;;;;;;;5052678;28;20219;-77
2022/03/02 00:40:31;;;;;;;17.87;13.40;;;;;;;;;;5053769;28;20596;-76
2022/03/02 00:42:59;;;;;;;18.47;14.10;;;;;;;;;;5053682;28;20206;-77
2022/03/02 00:45:28;;;;;;;18.30;13.93;;;;;;;;;;5052937;28;20196;-76
2022/03/02 00:47:56;;;;;;;18.93;14.03;;;;;;;;;;5053243;28;20230;-77
2022/03/02 00:50:25;;;;;;;19.90;13.33;;;;;;;;;;5053004;28;20610;-77
2022/03/02 00:52:55;;;;;;;17.50;13.83;;;;;;;;;;5053534;28;20203;-77
2022/03/02 00:55:25;;;;;;;18.30;13.60;;;;;;;;;;5052613;28;20257;-76
2022/03/02 00:57:53;;;;;;;21.57;15.13;;;;;;;;;;5053174;28;20227;-77
2022/03/02 01:00:22;;;;;;;20.27;13.70;;;;;;;;;;5053258;28;20199;-77
2022/03/02 01:02:50;;;;;;;15.67;12.43;;;;;;;;;;5053005;28;20206;-77
2022/03/02 01:05:18;;;;;;;17.23;13.40;;;;;;;;;;5050679;28;20210;-77
2022/03/02 01:07:47;;;;;;;17.93;13.27;;;;;;;;;;5052922;28;20715;-76
2022/03/02 01:10:16;;;;;;;20.53;14.33;;;;;;;;;;5053338;28;20226;-76
2022/03/02 01:12:46;;;;;;;19.53;14.03;;;;;;;;;;5053087;28;20199;-77
2022/03/02 01:15:14;;;;;;;18.33;13.93;;;;;;;;;;5054315;28;20226;-76
2022/03/02 01:17:43;;;;;;;19.10;13.50;;;;;;;;;;5052967;28;20227;-77
2022/03/02 01:20:12;;;;;;;19.43;14.07;;;;;;;;;;5053172;28;20206;-77
2022/03/02 01:22:40;;;;;;;18.30;13.17;;;;;;;;;;5052055;28;20200;-77
2022/03/02 01:25:09;;;;;;;18.10;13.73;;;;;;;;;;5052728;28;20257;-77
2022/03/02 01:27:38;;;;;;;19.07;13.90;;;;;;;;;;5052906;28;20231;-76
2022/03/02 01:30:09;;;;;;;20.13;14.00;;;;;;;;;;5052207;28;20215;-77
2022/03/02 01:32:38;;;;;;;18.93;13.63;;;;;;;;;;5049494;28;20210;-77
2022/03/02 01:35:08;;;;;;;17.30;13.20;;;;;;;;;;5052833;28;20257;-77
2022/03/02 01:37:36;;;;;;;17.33;13.77;;;;;;;;;;5053083;28;20231;-76
2022/03/02 01:40:05;;;;;;;19.60;13.43;;;;;;;;;;5052716;28;20660;-76
2022/03/02 01:42:34;;;;;;;17.37;13.20;;;;;;;;;;5052379;28;20233;-77
2022/03/02 01:45:02;;;;;;;17.37;12.97;;;;;;;;;;5052900;28;20245;-76
2022/03/02 01:47:32;;;;;;;19.10;13.50;;;;;;;;;;5052229;28;20225;-76
2022/03/02 01:50:01;;;;;;;17.63;12.90;;;;;;;;;;5052755;28;20230;-77
2022/03/02 01:52:30;;;;;;;18.90;13.10;;;;;;;;;;5052236;28;20198;-77
2022/03/02 01:54:58;;;;;;;17.83;13.53;;;;;;;;;;5051762;28;20219;-76
2022/03/02 01:57:28;;;;;;;17.50;13.70;;;;;;;;;;5052831;28;20270;-76
2022/03/02 01:59:56;;;;;;;20.23;14.17;;;;;;;;;;5048776;28;20215;-76
2022/03/02 02:02:25;;;;;;;18.93;13.37;;;;;;;;;;5052222;28;20578;-76
2022/03/02 02:04:55;;;;;;;17.47;13.60;;;;;;;;;;5051909;28;20210;-76
2022/03/02 02:07:25;;;;;;;17.63;13.80;;;;;;;;;;5047487;28;20228;-76
2022/03/02 02:09:53;;;;;;;19.17;13.27;;;;;;;;;;5051952;28;20207;-77
2022/03/02 02:12:22;;;;;;;18.37;13.57;;;;;;;;;;5052503;28;20206;-76
2022/03/02 02:14:50;;;;;;;19.07;13.80;;;;;;;;;;5052128;28;20211;-76
2022/03/02 02:17:19;;;;;;;18.10;13.73;;;;;;;;;;5051202;28;20235;-77
2022/03/02 02:19:47;;;;;;;17.30;13.60;;;;;;;;;;5051804;28;20694;-77
2022/03/02 02:22:17;;;;;;;17.50;13.77;;;;;;;;;;5051046;28;20613;-77
2022/03/02 02:24:46;;;;;;;16.67;12.63;;;;;;;;;;5051816;28;20210;-76
2022/03/02 02:27:15;;;;;;;20.73;13.17;;;;;;;;;;5051217;28;20223;-76
2022/03/02 02:29:44;;;;;;;19.63;13.87;;;;;;;;;;5051693;28;20632;-77
2022/03/02 02:32:16;;;;;;;17.60;13.70;;;;;;;;;;5043547;28;20218;-76
2022/03/02 02:34:44;;;;;;;18.43;13.77;;;;;;;;;;5055432;28;20587;-76
2022/03/02 02:37:13;;;;;;;19.77;14.00;;;;;;;;;;5053399;28;20224;-76
2022/03/02 02:39:44;;;;;;;18.10;13.30;;;;;;;;;;5055332;28;20685;-76
2022/03/02 02:42:12;;;;;;;18.47;13.83;;;;;;;;;;5054733;28;20257;-76
2022/03/02 02:44:41;;;;;;;19.53;14.17;;;;;;;;;;5051634;28;20198;-77
2022/03/02 02:47:09;;;;;;;17.67;13.47;;;;;;;;;;5053133;28;20223;-76
2022/03/02 02:49:38;;;;;;;19.17;13.67;;;;;;;;;;5055002;28;20286;-77
2022/03/02 02:52:07;;;;;;;17.67;13.20;;;;;;;;;;5053718;28;20277;-76
2022/03/02 02:54:35;;;;;;;17.53;12.77;;;;;;;;;;5083393;22;20209;-77
2022/03/02 02:57:15;;;;;;;17.67;13.10;;;;;;;;;;5055060;28;20228;-77
2022/03/02 02:59:44;;;;;;;17.03;12.80;;;;;;;;;;5054852;28;20207;-77
2022/03/02 03:02:12;;;;;;;16.97;12.93;;;;;;;;;;5040255;28;20685;-78
2022/03/02 03:04:46;;;;;;;17.80;13.10;;;;;;;;;;5055359;28;20199;-77
2022/03/02 03:07:17;;;;;;;16.83;13.27;;;;;;;;;;5054302;28;20223;-77
2022/03/02 03:09:47;;;;;;;17.70;13.43;;;;;;;;;;5055067;28;20650;-78
2022/03/02 03:12:18;;;;;;;18.90;13.33;;;;;;;;;;5053131;28;20222;-77
2022/03/02 03:14:50;;;;;;;18.10;13.50;;;;;;;;;;5047784;28;20200;-78
2022/03/02 03:17:24;;;;;;;17.80;13.63;;;;;;;;;;5054265;28;20227;-77
2022/03/02 03:19:54;;;;;;;17.93;14.60;;;;;;;;;;5053982;28;20286;-78
2022/03/02 03:22:23;;;;;;;16.27;13.47;;;;;;;;;;5037612;28;20658;-78
2022/03/02 03:24:54;;;;;;;18.30;13.87;;;;;;;;;;5054667;28;20302;-78
2022/03/02 03:27:28;;;;;;;17.63;13.30;;;;;;;;;;5051867;28;20556;-77
2022/03/02 03:29:58;;;;;;;17.80;13.37;;;;;;;;;;5051028;28;20268;-77
2022/03/02 03:32:29;;;;;;;18.63;14.23;;;;;;;;;;5052952;28;20224;-77
2022/03/02 03:35:01;;;;;;;17.87;13.40;;;;;;;;;;5053543;28;20211;-78
2022/03/02 03:37:36;;;;;;;16.87;13.13;;;;;;;;;;5054208;28;20224;-78
2022/03/02 03:40:07;;;;;;;17.97;14.17;;;;;;;;;;5053877;28;20321;-78
2022/03/02 03:42:40;;;;;;;18.10;13.43;;;;;;;;;;5052271;28;20274;-77
2022/03/02 03:45:11;;;;;;;18.40;13.37;;;;;;;;;;5035996;28;20192;-78
2022/03/02 03:47:41;;;;;;;17.13;13.63;;;;;;;;;;5054105;28;20580;-77
2022/03/02 03:50:11;;;;;;;16.43;13.47;;;;;;;;;;5051204;28;20203;-78
2022/03/02 03:52:43;;;;;;;16.47;13.00;;;;;;;;;;5039806;28;20321;-77
2022/03/02 03:55:13;;;;;;;16.83;12.87;;;;;;;;;;5052842;28;20214;-78
2022/03/02 03:57:45;;;;;;;15.53;12.40;;;;;;;;;;5043190;28;20220;-78
2022/03/02 04:00:16;;;;;;;18.20;13.43;;;;;;;;;;5050691;28;20215;-77
2022/03/02 04:02:47;;;;;;;17.60;13.07;;;;;;;;;;5048154;28;20693;-77
2022/03/02 04:05:18;;;;;;;17.40;13.40;;;;;;;;;;5045761;28;20215;-77
2022/03/02 04:07:50;;;;;;;18.47;13.13;;;;;;;;;;5053503;28;20686;-79
2022/03/02 04:10:20;;;;;;;17.10;13.23;;;;;;;;;;5053201;28;20207;-78
2022/03/02 04:12:52;;;;;;;19.43;13.77;;;;;;;;;;5051843;28;20317;-78
2022/03/02 04:15:22;;;;;;;17.83;14.03;;;;;;;;;;5053340;28;20674;-77
2022/03/02 04:17:52;;;;;;;20.10;13.70;;;;;;;;;;5051436;28;20244;-78
2022/03/02 04:20:35;;;;;;;17.67;13.57;;;;;;;;;;5047890;28;20289;-78
2022/03/02 04:23:08;;;;;;;18.77;14.13;;;;;;;;;;5052634;28;20210;-77
2022/03/02 04:25:38;;;;;;;20.77;14.63;;;;;;;;;;5043798;28;20199;-77
2022/03/02 04:28:12;;;;;;;20.20;14.67;;;;;;;;;;5044844;28;20213;-78
2022/03/02 04:30:44;;;;;;;22.13;15.73;;;;;;;;;;5052976;28;20206;-77
2022/03/02 04:33:16;;;;;;;19.53;14.77;;;;;;;;;;5051071;28;20223;-78
2022/03/02 04:35:47;;;;;;;20.03;14.50;;;;;;;;;;5051916;28;20217;-77
2022/03/02 04:38:17;;;;;;;18.80;14.20;;;;;;;;;;5034919;28;20192;-77
2022/03/02 04:40:49;;;;;;;23.20;14.67;;;;;;;;;;5052109;28;20203;-77
2022/03/02 04:43:20;;;;;;;20.63;14.83;;;;;;;;;;5052015;28;20205;-78
2022/03/02 04:45:51;;;;;;;19.30;14.10;;;;;;;;;;5050180;28;20198;-78
2022/03/02 04:48:21;;;;;;;19.37;14.20;;;;;;;;;;5053204;28;20225;-78
2022/03/02 04:50:52;;;;;;;18.37;13.73;;;;;;;;;;5052725;28;20202;-77
2022/03/02 04:53:24;;;;;;;20.60;14.07;;;;;;;;;;5052669;28;20615;-78
2022/03/02 04:55:54;;;;;;;19.30;14.33;;;;;;;;;;5051115;28;20207;-77
2022/03/02 04:58:25;;;;;;;19.57;14.27;;;;;;;;;;5045163;28;20223;-77
2022/03/02 05:00:55;;;;;;;18.27;14.17;;;;;;;;;;5052191;28;20208;-78
2022/03/02 05:03:27;;;;;;;17.07;13.13;;;;;;;;;;5051601;28;20202;-77
2022/03/02 05:05:58;;;;;;;17.37;13.60;;;;;;;;;;5052096;28;20286;-77
2022/03/02 05:08:30;;;;;;;18.47;13.97;;;;;;;;;;5054192;28;20574;-77
2022/03/02 05:11:01;;;;;;;17.53;13.57;;;;;;;;;;5053449;28;20257;-78
2022/03/02 05:13:32;;;;;;;17.83;13.87;;;;;;;;;;5050881;28;20331;-78
2022/03/02 05:16:02;;;;;;;16.83;13.50;;;;;;;;;;5050661;28;20719;-78
2022/03/02 05:18:41;;;;;;;18.07;13.57;;;;;;;;;;5052836;28;20210;-78
2022/03/02 05:21:13;;;;;;;19.00;14.47;;;;;;;;;;5052266;28;20684;-81
2022/03/02 05:23:44;;;;;;;23.07;14.90;;;;;;;;;;5074582;28;20214;-83
2022/03/02 05:26:17;;;;;;;20.07;13.60;;;;;;;;;;5074328;28;20219;-83
2022/03/02 05:28:52;;;;;;;19.33;14.37;;;;;;;;;;5071575;28;20206;-83
2022/03/02 05:31:24;;;;;;;19.80;14.67;;;;;;;;;;5059211;28;20211;-83
2022/03/02 05:34:01;;;;;;;21.60;14.80;;;;;;;;;;5049378;28;20218;-83
2022/03/02 05:39:27;;;;;;;21.40;14.97;;;;;;;;;;5054920;28;20259;-83
2022/03/02 05:41:57;;;;;;;20.57;14.60;;;;;;;;;;5062268;28;20206;-83
2022/03/02 05:44:27;;;;;;;18.47;14.70;;;;;;;;;;5074741;28;20217;-83
2022/03/02 05:46:55;;;;;;;21.03;15.17;;;;;;;;;;5065381;28;20227;-76
2022/03/02 05:49:24;;;;;;;19.57;15.07;;;;;;;;;;5064886;28;20203;-77
2022/03/02 05:51:52;;;;;;;20.83;14.33;;;;;;;;;;5060603;28;20216;-77
2022/03/02 05:54:21;;;;;;;17.93;14.50;;;;;;;;;;5052096;28;20199;-77
2022/03/02 05:56:49;;;;;;;17.80;14.07;;;;;;;;;;5060893;28;20223;-77
2022/03/02 05:59:18;;;;;;;21.10;14.60;;;;;;;;;;5061377;28;20206;-77
2022/03/02 06:01:49;;;;;;;18.80;14.37;;;;;;;;;;5062291;28;20195;-78
2022/03/02 06:04:17;;;;;;;19.70;15.13;;;;;;;;;;5054240;28;20211;-78
2022/03/02 06:06:46;;;;;;;19.67;14.90;;;;;;;;;;5055937;28;20726;-77
2022/03/02 06:09:14;;;;;;;18.97;14.40;;;;;;;;;;5055726;28;20261;-79
2022/03/02 06:11:43;;;;;;;20.03;14.90;;;;;;;;;;5058821;28;20234;-77
2022/03/02 06:14:12;;;;;;;18.90;14.70;;;;;;;;;;5060559;28;20254;-78
2022/03/02 06:16:43;;;;;;;21.57;14.70;;;;;;;;;;5065272;28;20226;-78
2022/03/02 06:19:14;;;;;;;19.73;15.43;;;;;;;;;;5058673;28;20203;-78
2022/03/02 06:21:44;;;;;;;20.13;15.43;;;;;;;;;;5068607;28;20211;-77
2022/03/02 06:24:14;;;;;;;19.57;14.97;;;;;;;;;;5068202;28;20199;-78
2022/03/02 06:26:43;;;;;;;20.00;14.53;;;;;;;;;;5064330;28;20227;-78
2022/03/02 06:29:11;;;;;;;18.60;14.53;;;;;;;;;;5068112;28;20206;-78
2022/03/02 06:31:41;;;;;;;16.87;13.60;;;;;;;;;;5059338;28;20200;-77
2022/03/02 06:34:10;;;;;;;18.03;14.30;;;;;;;;;;5062037;28;20309;-77
2022/03/02 06:36:39;;;;;;;20.40;15.57;;;;;;;;;;5068114;28;20215;-78
2022/03/02 06:39:08;;;;;;;18.37;14.70;;;;;;;;;;5068107;28;20199;-78
2022/03/02 06:41:51;;;;;;;19.90;15.50;;;;;;;;;;5067984;28;20203;-77
2022/03/02 06:44:25;;;;;;;19.97;14.90;;;;;;;;;;5066669;28;20214;-78
2022/03/02 06:46:57;;;;;;;18.30;14.10;;;;;;;;;;5068313;28;20816;-78
2022/03/02 06:49:27;;;;;;;20.27;15.07;;;;;;;;;;5065791;28;20202;-78
2022/03/02 06:51:58;;;;;;;19.77;15.23;;;;;;;;;;5068056;28;20708;-78
2022/03/02 06:54:30;;;;;;;19.23;15.03;;;;;;;;;;5065324;28;20245;-77
2022/03/02 06:56:59;;;;;;;22.07;16.00;;;;;;;;;;5066061;28;20288;-77
2022/03/02 06:59:30;;;;;;;18.63;14.90;;;;;;;;;;5067245;28;20195;-76
2022/03/02 07:02:02;;;;;;;18.00;14.40;;;;;;;;;;5068091;28;20203;-78
2022/03/02 07:04:34;;;;;;;20.77;14.57;;;;;;;;;;5067860;28;20188;-77
2022/03/02 07:07:04;;;;;;;22.57;14.37;;;;;;;;;;5068236;28;20230;-77
2022/03/02 07:09:34;;;;;;;18.93;15.17;;;;;;;;;;5067517;28;20651;-77
2022/03/02 07:12:03;;;;;;;21.63;15.70;;;;;;;;;;5067528;28;20225;-78
2022/03/02 07:14:32;;;;;;;18.90;14.97;;;;;;;;;;5066846;28;20216;-78
2022/03/02 07:17:02;;;;;;;20.57;15.00;;;;;;;;;;5067308;28;20219;-78
2022/03/02 07:19:30;;;;;;;19.97;14.73;;;;;;;;;;5066018;28;20207;-77
2022/03/02 07:22:02;;;;;;;20.60;14.93;;;;;;;;;;5066879;28;20261;-78
2022/03/02 07:24:35;;;;;;;20.63;14.93;;;;;;;;;;5058259;28;20190;-77
2022/03/02 07:27:04;;;;;;;18.43;14.90;;;;;;;;;;5063123;28;20228;-78
2022/03/02 07:29:35;;;;;;;18.93;14.27;;;;;;;;;;5062898;28;20199;-79
2022/03/02 07:32:04;;;;;;;18.83;13.53;;;;;;;;;;5066364;28;20242;-78
2022/03/02 07:34:33;;;;;;;18.23;13.97;;;;;;;;;;5051702;28;20256;-77
2022/03/02 07:37:02;;;;;;;16.93;13.77;;;;;;;;;;5065606;28;20219;-77
2022/03/02 07:39:31;;;;;;;15.93;12.83;;;;;;;;;;5050213;28;20200;-79
2022/03/02 07:42:00;;;;;;;17.67;12.97;;;;;;;;;;5063815;28;20203;-79
2022/03/02 07:44:28;;;;;;;15.47;11.87;;;;;;;;;;5054221;28;20193;-79
2022/03/02 07:46:57;;;;;;;15.83;11.87;;;;;;;;;;5043293;28;20234;-77
2022/03/02 07:49:26;;;;;;;13.10;11.37;;;;;;;;;;5043347;28;20290;-79
2022/03/02 07:51:56;;;;;;;14.00;10.87;;;;;;;;;;5058335;28;20200;-77
2022/03/02 07:54:25;;;;;;;15.23;11.47;;;;;;;;;;5056455;28;20612;-77
2022/03/02 07:56:55;;;;;;;15.10;11.67;;;;;;;;;;5039554;28;20226;-78
2022/03/02 07:59:23;;;;;;;15.07;11.30;;;;;;;;;;5051106;28;20204;-79
2022/03/02 08:01:53;;;;;;;15.50;11.27;;;;;;;;;;5057384;28;20223;-79
2022/03/02 08:04:23;;;;;;;14.37;11.33;;;;;;;;;;5057507;28;20231;-78
2022/03/02 08:09:28;;;;;;;13.03;11.07;;;;;;;;;;5029272;28;20223;-79
2022/03/02 08:11:58;;;;;;;14.07;11.10;;;;;;;;;;5037355;28;20207;-79
2022/03/02 08:14:26;;;;;;;13.90;11.07;;;;;;;;;;5033118;28;20215;-78
2022/03/02 08:16:55;;;;;;;14.33;11.03;;;;;;;;;;5030169;28;20285;-78
2022/03/02 08:19:24;;;;;;;12.43;10.20;;;;;;;;;;5042618;28;20199;-78
2022/03/02 08:21:53;;;;;;;13.40;10.97;;;;;;;;;;5045835;28;20219;-78
2022/03/02 08:24:25;;;;;;;15.70;10.23;;;;;;;;;;5041235;28;20200;-79
2022/03/02 08:26:56;;;;;;;13.60;10.50;;;;;;;;;;5046255;28;20211;-78
2022/03/02 08:29:27;;;;;;;12.60;10.63;;;;;;;;;;5045249;28;20202;-78
2022/03/02 08:31:59;;;;;;;13.00;9.63;;;;;;;;;;5038567;28;20200;-78
2022/03/02 08:34:27;;;;;;;10.43;9.33;;;;;;;;;;5045158;28;20216;-79
2022/03/02 08:36:56;;;;;;;10.50;9.03;;;;;;;;;;5045157;28;20224;-78
2022/03/02 08:39:25;;;;;;;10.33;8.40;;;;;;;;;;5044961;28;20207;-79
2022/03/02 08:41:54;;;;;;;11.77;9.17;;;;;;;;;;5029898;28;20251;-78
2022/03/02 08:44:23;;;;;;;12.60;8.60;;;;;;;;;;5041443;28;20204;-78
2022/03/02 08:46:53;;;;;;;11.37;9.23;;;;;;;;;;5045445;28;20294;-78
2022/03/02 08:49:22;;;;;;;11.30;8.47;;;;;;;;;;5045247;28;20773;-78
2022/03/02 08:51:51;;;;;;;9.90;8.20;;;;;;;;;;5045214;28;20215;-78
2022/03/02 08:54:21;;;;;;;13.10;8.37;;;;;;;;;;5044822;28;20307;-78
2022/03/02 08:56:49;;;;;;;11.67;8.83;;;;;;;;;;5044119;28;20218;-79
2022/03/02 08:59:18;;;;;;;10.80;9.33;;;;;;;;;;5044957;28;20246;-77
2022/03/02 09:01:51;;;;;;;10.70;8.13;;;;;;;;;;5045593;28;20208;-78
2022/03/02 09:04:23;;;;;;;9.07;8.10;;;;;;;;;;5041908;28;20185;-78
2022/03/02 09:06:51;;;;;;;10.00;8.67;;;;;;;;;;5026037;28;20235;-78
2022/03/02 09:09:20;;;;;;;9.90;8.43;;;;;;;;;;5025666;28;20224;-78
2022/03/02 09:11:49;;;;;;;10.43;8.33;;;;;;;;;;5027496;28;20250;-78
2022/03/02 09:14:19;;;;;;;10.10;8.50;;;;;;;;;;5042119;28;20211;-78
2022/03/02 09:16:48;;;;;;;10.47;8.83;;;;;;;;;;5044951;28;20224;-79
2022/03/02 09:19:16;;;;;;;9.13;8.23;;;;;;;;;;5044700;28;20195;-77
2022/03/02 09:21:47;;;;;;;11.30;8.60;;;;;;;;;;5030940;28;20197;-78
2022/03/02 09:24:16;;;;;;;10.97;8.60;;;;;;;;;;5038298;28;20184;-78
2022/03/02 09:26:45;;;;;;;9.13;7.50;;;;;;;;;;5039418;28;20251;-78
2022/03/02 09:29:15;;;;;;;10.27;8.30;;;;;;;;;;5045150;28;20212;-78
2022/03/02 09:31:46;;;;;;;9.93;8.37;;;;;;;;;;5045263;28;20211;-79
2022/03/02 09:34:14;;;;;;;9.60;8.20;;;;;;;;;;5038175;28;20208;-78
2022/03/02 09:36:44;;;;;;;9.97;7.87;;;;;;;;;;5041205;28;20706;-79
2022/03/02 09:39:14;;;;;;;11.03;8.23;;;;;;;;;;5044882;28;20199;-78
2022/03/02 09:41:48;;;;;;;10.53;8.50;;;;;;;;;;5043525;28;20207;-79
2022/03/02 09:44:18;;;;;;;11.47;8.40;;;;;;;;;;5042518;28;20545;-77
2022/03/02 09:46:50;;;;;;;9.53;8.30;;;;;;;;;;5049271;28;20234;-78
2022/03/02 09:49:23;;;;;;;9.60;7.47;;;;;;;;;;5048704;28;20199;-79
2022/03/02 09:51:53;;;;;;;8.50;7.60;;;;;;;;;;5048031;28;20246;-78
2022/03/02 09:54:24;;;;;;;8.60;7.67;;;;;;;;;;5047055;28;20219;-79
2022/03/02 09:56:52;;;;;;;9.27;7.50;;;;;;;;;;5040633;28;20247;-78
2022/03/02 09:59:22;;;;;;;10.50;8.47;;;;;;;;;;5043895;28;20208;-78
2022/03/02 10:01:52;;;;;;;9.40;8.40;;;;;;;;;;5047773;28;20204;-78
2022/03/02 10:04:22;;;;;;;9.60;8.00;;;;;;;;;;5046161;28;20204;-78
2022/03/02 10:06:52;;;;;;;9.07;7.87;;;;;;;;;;5039484;28;20220;-80
2022/03/02 10:09:22;;;;;;;9.63;7.37;;;;;;;;;;5027785;28;20220;-79
2022/03/02 10:11:52;;;;;;;9.20;7.97;;;;;;;;;;5036434;28;20200;-79
2022/03/02 10:14:21;;;;;;;8.70;7.63;;;;;;;;;;5046853;28;20204;-78
2022/03/02 10:16:53;;;;;;;10.07;7.97;;;;;;;;;;5046834;28;20216;-78
2022/03/02 10:19:43;;;;;;;9.03;7.73;;;;;;;;;;5046345;28;20677;-79
2022/03/02 10:22:15;;;;;;;9.37;8.00;;;;;;;;;;5046848;28;20207;-78
2022/03/02 10:24:45;;;;;;;10.53;7.63;;;;;;;;;;5046808;28;20206;-79
2022/03/02 10:27:28;;;;;;;8.40;7.60;;;;;;;;;;5047038;28;20220;-78
2022/03/02 10:30:04;;;;;;;9.23;8.13;;;;;;;;;;5026919;28;20208;-80
2022/03/02 10:32:35;;;;;;;9.03;8.03;;;;;;;;;;5039616;28;20203;-78
2022/03/02 10:35:08;;;;;;;9.10;8.10;;;;;;;;;;5046734;28;20219;-79
2022/03/02 10:37:37;;;;;;;8.63;7.73;;;;;;;;;;5047039;28;20617;-78
2022/03/02 10:40:09;;;;;;;8.80;7.90;;;;;;;;;;5047005;28;20200;-78
2022/03/02 10:42:41;;;;;;;8.57;7.67;;;;;;;;;;5046800;28;20188;-78
2022/03/02 10:45:12;;;;;;;8.73;7.50;;;;;;;;;;5047187;28;20686;-79
2022/03/02 10:47:47;;;;;;;8.83;7.93;;;;;;;;;;5047655;28;20212;-81
2022/03/02 10:50:16;;;;;;;8.33;7.20;;;;;;;;;;5048170;28;20222;-78
2022/03/02 10:52:45;;;;;;;9.47;7.07;;;;;;;;;;5046905;28;20212;-79
2022/03/02 10:55:14;;;;;;;7.70;6.90;;;;;;;;;;5045261;28;20238;-78
2022/03/02 10:57:46;;;;;;;9.07;8.00;;;;;;;;;;5047896;28;20228;-78
2022/03/02 11:00:17;;;;;;;8.40;7.00;;;;;;;;;;5046806;28;20246;-80
2022/03/02 11:02:46;;;;;;;7.50;6.77;;;;;;;;;;5047688;28;20208;-79
2022/03/02 11:05:16;;;;;;;8.33;7.33;;;;;;;;;;5046548;28;20199;-81
2022/03/02 11:07:46;;;;;;;8.13;7.30;;;;;;;;;;5047427;28;20659;-80
2022/03/02 11:10:16;;;;;;;8.90;7.37;;;;;;;;;;5048032;28;20206;-79
2022/03/02 11:12:46;;;;;;;8.03;7.10;;;;;;;;;;5048162;28;20188;-78
2022/03/02 11:15:16;;;;;;;8.60;7.70;;;;;;;;;;5047492;28;20319;-78
2022/03/02 11:17:55;;;;;;;8.73;7.30;;;;;;;;;;5039708;28;20231;-77
2022/03/02 11:20:25;;;;;;;13.57;11.63;;;;;;;;;;5048228;28;20191;-79
2022/03/02 11:22:55;;;;;;;9.27;8.00;;;;;;;;;;5047152;28;20192;-79
2022/03/02 11:25:46;;;;;;;8.23;7.10;;;;;;;;;;5046459;28;20200;-78
2022/03/02 11:28:17;;;;;;;9.13;7.50;;;;;;;;;;5047207;28;20200;-78
2022/03/02 11:30:49;;;;;;;8.60;7.43;;;;;;;;;;5047946;28;20204;-78
2022/03/02 11:33:22;;;;;;;8.43;7.57;;;;;;;;;;5048061;28;20253;-78
2022/03/02 11:35:52;;;;;;;8.93;7.43;;;;;;;;;;5046891;28;20682;-78
2022/03/02 11:38:21;;;;;;;7.67;6.70;;;;;;;;;;5047720;28;20200;-78
2022/03/02 11:40:51;;;;;;;7.70;6.73;;;;;;;;;;5047526;28;20610;-78
2022/03/02 11:43:22;;;;;;;7.63;6.90;;;;;;;;;;5046394;28;20224;-78
2022/03/02 11:45:56;;;;;;;7.33;6.47;;;;;;;;;;5046272;28;20211;-79
2022/03/02 11:48:26;;;;;;;8.20;7.40;;;;;;;;;;5047499;28;20234;-77
2022/03/02 11:51:23;;;;;;;7.80;7.00;;;;;;;;;;5046500;28;20231;-78
2022/03/02 11:53:53;;;;;;;7.17;6.43;;;;;;;;;;5013017;28;20196;-78
2022/03/02 11:56:22;;;;;;;7.60;6.80;;;;;;;;;;5045893;28;20250;-77
2022/03/02 11:58:55;;;;;;;8.20;6.97;;;;;;;;;;5047159;28;20207;-77
2022/03/02 12:01:45;;;;;;;7.60;6.60;;;;;;;;;;5046648;28;20202;-78
2022/03/02 12:04:32;;;;;;;33.90;30.20;;;;;;;;;;5046181;28;20196;-78
2022/03/02 12:07:04;;;;;;;9.00;7.07;;;;;;;;;;5045553;28;20270;-77
2022/03/02 12:09:33;;;;;;;7.70;6.90;;;;;;;;;;5046191;28;20211;-78
2022/03/02 12:12:08;;;;;;;7.93;6.80;;;;;;;;;;5047198;28;20204;-77
2022/03/02 12:14:49;;;;;;;7.63;6.83;;;;;;;;;;5046260;28;20199;-78
2022/03/02 12:17:19;;;;;;;8.07;7.27;;;;;;;;;;5045389;28;20254;-81
2022/03/02 12:19:49;;;;;;;7.60;6.53;;;;;;;;;;5045187;28;20270;-78
2022/03/02 12:22:18;;;;;;;7.57;6.77;;;;;;;;;;5044817;28;20662;-79
2022/03/02 12:24:47;;;;;;;7.90;6.77;;;;;;;;;;5046393;28;20207;-78
2022/03/02 12:27:16;;;;;;;9.40;7.67;;;;;;;;;;5046635;28;20319;-78
2022/03/02 12:29:53;;;;;;;8.20;6.80;;;;;;;;;;5046293;28;20208;-79
2022/03/02 12:32:23;;;;;;;9.73;7.83;;;;;;;;;;5046034;28;20222;-77
2022/03/02 12:34:52;;;;;;;8.37;7.57;;;;;;;;;;5045240;28;20184;-79
2022/03/02 12:37:22;;;;;;;9.50;8.00;;;;;;;;;;5044327;28;20224;-78
2022/03/02 12:39:51;;;;;;;8.67;7.30;;;;;;;;;;5044970;28;20206;-78
2022/03/02 12:42:22;;;;;;;11.77;8.20;;;;;;;;;;5045489;28;20245;-78
2022/03/02 12:44:54;;;;;;;8.80;7.47;;;;;;;;;;5045880;28;20192;-78
2022/03/02 12:47:25;;;;;;;8.50;7.60;;;;;;;;;;5045446;28;20341;-79
2022/03/02 12:49:56;;;;;;;8.70;7.77;;;;;;;;;;5045391;28;20531;-79
2022/03/02 12:52:27;;;;;;;9.40;7.40;;;;;;;;;;5046398;28;20200;-78
2022/03/02 12:55:00;;;;;;;8.30;7.40;;;;;;;;;;5044140;28;20192;-79
2022/03/02 12:57:29;;;;;;;9.73;7.67;;;;;;;;;;5045393;28;20228;-79
2022/03/02 13:00:00;;;;;;;9.57;8.57;;;;;;;;;;5031595;28;20196;-78
2022/03/02 13:02:32;;;;;;;11.27;8.30;;;;;;;;;;5044323;28;20203;-79
2022/03/02 13:05:07;;;;;;;8.87;7.97;;;;;;;;;;5042982;28;20620;-79
2022/03/02 13:07:54;;;;;;;11.53;7.70;;;;;;;;;;5045741;28;20215;-78
2022/03/02 13:10:23;;;;;;;9.57;8.03;;;;;;;;;;5029501;28;20204;-78
2022/03/02 13:12:56;;;;;;;8.70;7.80;;;;;;;;;;5026632;28;20213;-78
2022/03/02 13:15:44;;;;;;;9.27;8.27;;;;;;;;;;5025416;28;20211;-79
2022/03/02 13:18:21;;;;;;;10.03;8.23;;;;;;;;;;5024455;28;20227;-80
2022/03/02 13:20:51;;;;;;;10.87;8.93;;;;;;;;;;5030994;28;20196;-78
2022/03/02 13:23:20;;;;;;;10.03;8.57;;;;;;;;;;5043232;28;20200;-79
2022/03/02 13:26:07;;;;;;;11.87;9.57;;;;;;;;;;5043849;28;20203;-78
2022/03/02 13:28:36;;;;;;;12.37;9.50;;;;;;;;;;5042219;28;20203;-79
2022/03/02 13:31:09;;;;;;;10.50;8.67;;;;;;;;;;5041257;28;20196;-78
2022/03/02 13:33:55;;;;;;;10.17;8.87;;;;;;;;;;5039666;28;20203;-79
2022/03/02 13:36:34;;;;;;;10.20;8.70;;;;;;;;;;5033631;28;20223;-79
2022/03/02 13:39:07;;;;;;;11.13;9.30;;;;;;;;;;5037630;28;20203;-79
2022/03/02 13:41:45;;;;;;;12.50;8.70;;;;;;;;;;5042293;28;20204;-79
2022/03/02 13:44:21;;;;;;;10.47;8.40;;;;;;;;;;5039827;28;20620;-78
2022/03/02 13:47:05;;;;;;;10.37;8.20;;;;;;;;;;5042418;28;20211;-79
2022/03/02 13:49:50;;;;;;;10.90;9.13;;;;;;;;;;5041876;28;20254;-79
2022/03/02 13:52:20;;;;;;;12.03;9.77;;;;;;;;;;5043405;28;20192;-79
2022/03/02 13:54:49;;;;;;;12.20;9.77;;;;;;;;;;5038186;28;20203;-79
2022/03/02 13:57:19;;;;;;;12.53;10.00;;;;;;;;;;5040342;28;20227;-78
2022/03/02 13:59:47;;;;;;;11.37;10.17;;;;;;;;;;5032542;28;20200;-78
2022/03/02 14:02:16;;;;;;;14.97;9.83;;;;;;;;;;5039743;28;20261;-78
2022/03/02 14:04:45;;;;;;;12.07;9.87;;;;;;;;;;5038747;28;20200;-78
2022/03/02 14:07:17;;;;;;;13.93;10.93;;;;;;;;;;5041085;28;20227;-78
2022/03/02 14:09:46;;;;;;;13.70;10.80;;;;;;;;;;5040673;28;20212;-77
2022/03/02 14:12:16;;;;;;;14.03;10.87;;;;;;;;;;5041300;28;20212;-78
2022/03/02 14:14:45;;;;;;;13.20;10.70;;;;;;;;;;5042236;28;20193;-79
2022/03/02 14:17:14;;;;;;;13.17;10.80;;;;;;;;;;5041215;28;20232;-79
2022/03/02 14:19:43;;;;;;;13.10;11.33;;;;;;;;;;5041412;28;20207;-78
2022/03/02 14:22:14;;;;;;;12.73;10.30;;;;;;;;;;5042260;28;20208;-78
2022/03/02 14:24:45;;;;;;;13.00;10.63;;;;;;;;;;5042240;28;20636;-79
2022/03/02 14:27:17;;;;;;;13.93;10.50;;;;;;;;;;5042281;28;20224;-79
2022/03/02 14:29:52;;;;;;;12.73;10.33;;;;;;;;;;5044338;28;20207;-78
2022/03/02 14:32:30;;;;;;;13.33;10.80;;;;;;;;;;5047542;28;20207;-78
2022/03/02 14:35:00;;;;;;;12.87;10.60;;;;;;;;;;5043333;28;20234;-78
2022/03/02 14:37:32;;;;;;;14.37;11.33;;;;;;;;;;5043795;28;20234;-78
2022/03/02 14:40:19;;;;;;;13.30;11.13;;;;;;;;;;5045615;28;20208;-79
2022/03/02 14:42:53;;;;;;;12.00;10.60;;;;;;;;;;5042472;28;20208;-78
2022/03/02 14:45:23;;;;;;;13.30;10.40;;;;;;;;;;5033327;28;20208;-77
2022/03/02 14:47:53;;;;;;;14.47;9.97;;;;;;;;;;5031957;28;20220;-79
2022/03/02 14:50:24;;;;;;;11.37;9.43;;;;;;;;;;5031010;28;20222;-78